createdAt,value
2022-12-08T00:01:10.811Z,2.90
2022-12-08T00:03:38.273Z,2.08
2022-12-08T00:06:25.750Z,1.98
2022-12-08T00:09:11.022Z,1.73
2022-12-08T00:11:38.948Z,1.50
2022-12-08T00:14:05.615Z,2.88
2022-12-08T00:16:32.363Z,1.98
2022-12-08T00:18:59.048Z,3.45
2022-12-08T00:21:25.731Z,2.92
2022-12-08T00:23:55.498Z,2.15
2022-12-08T00:26:22.518Z,2.40
2022-12-08T00:28:49.245Z,2.85
2022-12-08T00:31:15.962Z,2.72
2022-12-08T00:33:42.755Z,2.10
2022-12-08T00:36:11.773Z,1.88
2022-12-08T00:38:39.687Z,1.63
2022-12-08T00:41:13.134Z,1.48
2022-12-08T00:43:40.051Z,1.20
2022-12-08T00:46:06.957Z,1.00
2022-12-08T00:48:34.048Z,1.30
2022-12-08T00:51:00.726Z,1.20
2022-12-08T00:53:27.431Z,1.23
2022-12-08T00:55:54.077Z,1.20
2022-12-08T00:58:20.700Z,0.95
2022-12-08T01:00:47.460Z,1.20
2022-12-08T01:03:14.331Z,2.00
2022-12-08T01:05:40.999Z,1.08
2022-12-08T01:08:08.830Z,0.90
2022-12-08T01:10:36.966Z,0.90
2022-12-08T01:13:04.419Z,0.90
2022-12-08T01:15:31.285Z,1.08
2022-12-08T01:17:58.010Z,1.10
2022-12-08T01:20:24.805Z,0.93
2022-12-08T01:22:51.473Z,1.17
2022-12-08T01:25:18.196Z,0.80
2022-12-08T01:27:44.866Z,0.70
2022-12-08T01:30:12.268Z,0.85
2022-12-08T01:32:38.862Z,0.90
2022-12-08T01:35:05.812Z,0.95
2022-12-08T01:37:32.464Z,0.80
2022-12-08T01:39:59.467Z,0.80
2022-12-08T01:42:26.338Z,0.70
2022-12-08T01:44:57.478Z,0.80
2022-12-08T01:47:30.488Z,0.80
2022-12-08T01:49:57.458Z,0.60
2022-12-08T01:52:29.929Z,0.60
2022-12-08T01:55:02.366Z,0.70
2022-12-08T01:57:40.310Z,0.80
2022-12-08T02:00:10.425Z,0.70
2022-12-08T02:02:48.164Z,0.77
2022-12-08T02:05:16.147Z,0.65
2022-12-08T02:07:43.907Z,0.60
2022-12-08T02:10:14.038Z,0.70
2022-12-08T02:12:40.726Z,0.80
2022-12-08T02:15:07.872Z,0.70
2022-12-08T02:18:35.982Z,0.80
2022-12-08T02:21:26.625Z,0.80
2022-12-08T02:23:56.016Z,0.70
2022-12-08T02:26:51.599Z,0.80
2022-12-08T02:29:50.895Z,0.80
2022-12-08T02:32:33.512Z,0.80
2022-12-08T02:35:21.627Z,0.70
2022-12-08T02:38:13.017Z,0.80
2022-12-08T02:41:11.758Z,0.60
2022-12-08T02:43:48.630Z,0.70
2022-12-08T02:46:22.117Z,0.63
2022-12-08T02:48:51.419Z,1.13
2022-12-08T02:51:18.666Z,0.82
2022-12-08T02:53:46.650Z,0.80
2022-12-08T02:56:47.165Z,0.80
2022-12-08T02:59:44.414Z,0.82
2022-12-08T03:02:39.188Z,1.00
2022-12-08T03:05:23.670Z,0.90
2022-12-08T03:08:07.214Z,0.88
2022-12-08T03:10:50.267Z,0.75
2022-12-08T03:13:22.288Z,0.80
2022-12-08T03:15:51.014Z,0.85
2022-12-08T03:18:19.370Z,0.90
2022-12-08T03:20:47.624Z,0.70
2022-12-08T03:23:17.662Z,0.73
2022-12-08T03:25:53.307Z,0.57
2022-12-08T03:28:20.146Z,0.80
2022-12-08T03:30:49.753Z,0.70
2022-12-08T03:33:23.036Z,0.70
2022-12-08T03:35:50.862Z,0.52
2022-12-08T03:38:18.102Z,0.80
2022-12-08T03:41:05.519Z,0.50
2022-12-08T03:43:32.228Z,0.65
2022-12-08T03:45:59.045Z,0.70
2022-12-08T03:48:25.699Z,0.80
2022-12-08T03:50:52.345Z,0.82
2022-12-08T03:53:18.936Z,0.65
2022-12-08T03:55:45.567Z,0.80
2022-12-08T03:58:12.348Z,0.70
2022-12-08T04:00:38.996Z,0.50
2022-12-08T04:03:06.469Z,0.80
2022-12-08T04:05:33.239Z,0.93
2022-12-08T04:08:01.150Z,0.85
2022-12-08T04:10:27.936Z,0.60
2022-12-08T04:12:55.942Z,0.93
2022-12-08T04:15:23.159Z,0.68
2022-12-08T04:17:49.826Z,1.27
2022-12-08T04:20:16.598Z,0.77
2022-12-08T04:22:43.283Z,1.33
2022-12-08T04:25:10.273Z,1.25
2022-12-08T04:27:36.942Z,1.17
2022-12-08T04:30:04.384Z,0.80
2022-12-08T04:32:31.099Z,1.38
2022-12-08T04:34:57.763Z,1.42
2022-12-08T04:37:24.363Z,1.20
2022-12-08T04:39:50.944Z,1.48
2022-12-08T04:42:17.562Z,1.00
2022-12-08T04:44:44.234Z,1.00
2022-12-08T04:47:10.988Z,1.20
2022-12-08T04:49:37.802Z,1.10
2022-12-08T04:52:04.631Z,1.00
2022-12-08T04:54:31.498Z,0.95
2022-12-08T04:56:58.158Z,1.20
2022-12-08T04:59:24.936Z,1.45
2022-12-08T05:01:51.596Z,1.33
2022-12-08T05:04:18.501Z,1.33
2022-12-08T05:06:45.131Z,1.30
2022-12-08T05:09:12.187Z,1.27
2022-12-08T05:11:46.981Z,1.20
2022-12-08T05:14:17.347Z,2.88
2022-12-08T05:16:44.922Z,1.65
2022-12-08T05:19:12.303Z,1.80
2022-12-08T05:21:40.176Z,1.55
2022-12-08T05:24:07.305Z,1.20
2022-12-08T05:26:34.119Z,1.27
2022-12-08T05:29:01.140Z,1.02
2022-12-08T05:31:27.825Z,1.17
2022-12-08T05:33:57.388Z,0.80
2022-12-08T05:36:26.255Z,1.02
2022-12-08T05:38:52.880Z,0.70
2022-12-08T05:41:21.069Z,0.82
2022-12-08T05:43:48.460Z,0.80
2022-12-08T05:46:16.299Z,0.80
2022-12-08T05:48:42.996Z,0.85
2022-12-08T05:51:19.817Z,0.88
2022-12-08T05:53:48.071Z,0.90
2022-12-08T05:56:14.738Z,0.95
2022-12-08T05:58:41.511Z,0.85
2022-12-08T06:01:08.287Z,0.90
2022-12-08T06:03:34.971Z,0.70
2022-12-08T06:06:01.694Z,1.23
2022-12-08T06:08:28.379Z,1.33
2022-12-08T06:10:54.986Z,1.15
2022-12-08T06:13:21.772Z,1.05
2022-12-08T06:15:48.629Z,1.02
2022-12-08T06:18:15.283Z,0.93
2022-12-08T06:20:41.916Z,1.30
2022-12-08T06:23:08.562Z,1.10
2022-12-08T06:25:35.293Z,1.40
2022-12-08T06:28:02.096Z,1.05
2022-12-08T06:30:28.840Z,1.42
2022-12-08T06:32:55.500Z,1.00
2022-12-08T06:35:22.368Z,1.15
2022-12-08T06:37:49.077Z,0.70
2022-12-08T06:40:15.867Z,0.75
2022-12-08T06:42:44.499Z,0.70
2022-12-08T06:45:12.866Z,0.82
2022-12-08T06:47:39.618Z,0.82
2022-12-08T06:50:11.962Z,1.17
2022-12-08T06:52:49.263Z,0.90
2022-12-08T06:55:50.868Z,0.80
2022-12-08T06:58:10.543Z,1.00
2022-12-08T07:00:37.171Z,0.98
2022-12-08T07:03:03.831Z,1.10
2022-12-08T07:05:30.474Z,0.90
2022-12-08T07:07:57.161Z,1.20
2022-12-08T07:10:23.913Z,1.73
2022-12-08T07:12:50.554Z,1.48
2022-12-08T07:15:17.267Z,1.50
2022-12-08T07:17:43.895Z,1.42
2022-12-08T07:20:10.776Z,1.10
2022-12-08T07:22:37.418Z,1.63
2022-12-08T07:25:04.291Z,1.35
2022-12-08T07:27:30.890Z,1.88
2022-12-08T07:29:57.731Z,1.65
2022-12-08T07:32:24.524Z,1.83
2022-12-08T07:34:51.298Z,1.60
2022-12-08T07:37:17.999Z,1.65
2022-12-08T07:39:44.656Z,1.60
2022-12-08T07:42:11.233Z,1.73
2022-12-08T07:44:37.867Z,1.80
2022-12-08T07:47:04.673Z,1.80
2022-12-08T07:49:31.330Z,1.83
2022-12-08T07:51:57.919Z,1.10
2022-12-08T07:54:24.570Z,1.50
2022-12-08T07:56:51.245Z,1.70
2022-12-08T07:59:17.904Z,1.60
2022-12-08T08:01:45.585Z,1.30
2022-12-08T08:04:12.565Z,1.45
2022-12-08T08:06:39.249Z,1.42
2022-12-08T08:09:06.270Z,1.25
2022-12-08T08:11:33.169Z,1.30
2022-12-08T08:13:59.939Z,1.25
2022-12-08T08:16:26.762Z,1.38
2022-12-08T08:18:54.220Z,1.50
2022-12-08T08:21:44.307Z,1.52
2022-12-08T08:24:08.588Z,1.38
2022-12-08T08:26:35.995Z,1.95
2022-12-08T08:29:02.719Z,1.92
2022-12-08T08:31:29.572Z,1.20
2022-12-08T08:33:57.161Z,1.70
2022-12-08T08:36:23.800Z,1.00
2022-12-08T08:38:50.662Z,1.15
2022-12-08T08:41:17.778Z,1.05
2022-12-08T08:43:44.499Z,1.10
2022-12-08T08:46:11.438Z,1.10
2022-12-08T08:48:39.170Z,1.73
2022-12-08T08:51:13.978Z,1.17
2022-12-08T08:53:41.690Z,1.23
2022-12-08T08:56:12.513Z,1.30
2022-12-08T08:58:39.529Z,1.05
2022-12-08T09:01:06.487Z,0.90
2022-12-08T09:03:33.245Z,1.25
2022-12-08T09:06:00.445Z,1.17
2022-12-08T09:08:27.262Z,1.25
2022-12-08T09:10:54.696Z,1.00
2022-12-08T09:13:22.262Z,0.60
2022-12-08T09:15:49.015Z,0.75
2022-12-08T09:18:15.744Z,0.70
2022-12-08T09:20:42.470Z,0.80
2022-12-08T09:23:09.164Z,0.70
2022-12-08T09:25:35.813Z,0.77
2022-12-08T09:28:02.446Z,0.70
2022-12-08T09:30:29.279Z,0.80
2022-12-08T09:32:55.887Z,1.25
2022-12-08T09:35:22.603Z,0.98
2022-12-08T09:37:49.252Z,0.80
2022-12-08T09:40:18.659Z,1.10
2022-12-08T09:43:08.890Z,0.80
2022-12-08T09:45:36.519Z,1.27
2022-12-08T09:48:16.299Z,0.90
2022-12-08T09:50:52.541Z,1.30
2022-12-08T09:53:23.244Z,1.20
2022-12-08T09:55:53.868Z,1.08
2022-12-08T09:58:38.398Z,1.30
2022-12-08T10:01:05.137Z,1.58
2022-12-08T10:03:31.774Z,1.50
2022-12-08T10:06:36.099Z,1.15
2022-12-08T10:09:24.519Z,1.40
2022-12-08T10:12:03.781Z,1.20
2022-12-08T10:14:39.096Z,0.88
2022-12-08T10:17:22.237Z,0.80
2022-12-08T10:19:53.937Z,1.10
2022-12-08T10:22:23.479Z,1.25
2022-12-08T10:25:00.213Z,2.20
2022-12-08T10:27:27.814Z,2.63
2022-12-08T10:29:54.495Z,2.00
2022-12-08T10:32:23.746Z,1.95
2022-12-08T10:35:12.153Z,2.53
2022-12-08T10:37:39.431Z,2.30
2022-12-08T10:40:08.983Z,2.47
2022-12-08T10:42:42.317Z,3.00
2022-12-08T10:45:09.090Z,2.65
2022-12-08T10:47:39.093Z,2.65
2022-12-08T10:50:33.306Z,2.10
2022-12-08T10:53:09.131Z,2.42
2022-12-08T10:56:01.723Z,2.90
2022-12-08T10:58:28.668Z,2.45
2022-12-08T11:01:03.151Z,2.88
2022-12-08T11:03:34.044Z,2.80
2022-12-08T11:06:10.986Z,2.85
2022-12-08T11:08:48.226Z,3.40
2022-12-08T11:11:15.298Z,3.38
2022-12-08T11:13:42.483Z,3.88
2022-12-08T11:16:13.531Z,4.38
2022-12-08T11:18:43.275Z,5.03
2022-12-08T11:21:18.634Z,4.90
2022-12-08T11:23:50.857Z,4.68
2022-12-08T11:26:29.784Z,4.03
2022-12-08T11:28:57.446Z,3.25
2022-12-08T11:31:31.651Z,3.08
2022-12-08T11:33:58.530Z,3.08
2022-12-08T11:36:29.045Z,2.28
2022-12-08T11:38:59.900Z,4.05
2022-12-08T11:41:38.883Z,2.50
2022-12-08T11:44:24.716Z,3.10
2022-12-08T11:46:56.955Z,3.60
2022-12-08T11:49:34.582Z,3.92
2022-12-08T11:52:12.064Z,3.33
2022-12-08T11:54:57.481Z,4.35
2022-12-08T11:57:27.139Z,3.85
2022-12-08T11:59:56.160Z,3.65
2022-12-08T12:02:29.914Z,3.30
2022-12-08T12:05:10.555Z,3.13
2022-12-08T12:07:58.624Z,4.50
2022-12-08T12:10:58.871Z,4.10
2022-12-08T12:13:58.329Z,4.65
2022-12-08T12:16:32.546Z,3.67
2022-12-08T12:19:03.707Z,3.05
2022-12-08T12:21:34.871Z,2.25
2022-12-08T12:24:06.743Z,1.92
2022-12-08T12:26:37.216Z,3.22
2022-12-08T12:29:16.158Z,3.75
2022-12-08T12:31:47.381Z,3.10
2022-12-08T12:34:27.626Z,2.65
2022-12-08T12:37:08.907Z,3.25
2022-12-08T12:39:52.383Z,2.90
2022-12-08T12:42:43.185Z,3.63
2022-12-08T12:45:21.878Z,3.30
2022-12-08T12:48:00.658Z,2.80
2022-12-08T12:50:33.785Z,1.67
2022-12-08T12:53:26.365Z,0.82
2022-12-08T12:56:01.344Z,1.92
2022-12-08T12:58:28.080Z,0.95
2022-12-08T13:01:10.221Z,1.38
2022-12-08T13:03:43.476Z,1.23
2022-12-08T13:06:14.773Z,1.20
2022-12-08T13:08:51.437Z,1.23
2022-12-08T13:11:18.266Z,1.20
2022-12-08T13:13:58.654Z,0.80
2022-12-08T13:16:27.855Z,0.70
2022-12-08T13:18:59.573Z,0.70
2022-12-08T13:21:36.845Z,0.98
2022-12-08T13:24:36.015Z,0.90
2022-12-08T13:27:05.678Z,0.90
2022-12-08T13:29:33.880Z,1.00
2022-12-08T13:32:01.835Z,0.80
2022-12-08T13:34:56.181Z,1.17
2022-12-08T13:37:29.442Z,0.73
2022-12-08T13:40:05.493Z,0.63
2022-12-08T13:42:47.039Z,0.80
2022-12-08T13:45:48.739Z,0.50
2022-12-08T13:48:35.181Z,0.63
2022-12-08T13:57:21.437Z,0.60
2022-12-08T13:59:48.140Z,0.70
2022-12-08T14:02:36.804Z,0.60
2022-12-08T14:05:34.696Z,0.60
2022-12-08T14:07:56.202Z,0.63
2022-12-08T14:10:30.484Z,0.70
2022-12-08T14:13:06.208Z,0.80
2022-12-08T14:15:37.837Z,0.60
2022-12-08T14:18:05.943Z,0.70
2022-12-08T14:20:51.717Z,0.57
2022-12-08T14:23:18.872Z,0.73
2022-12-08T14:25:48.133Z,0.80
2022-12-08T14:28:14.991Z,0.95
2022-12-08T14:30:42.267Z,0.90
2022-12-08T14:33:14.531Z,0.77
2022-12-08T14:35:41.160Z,1.25
2022-12-08T14:38:18.780Z,0.77
2022-12-08T14:41:05.884Z,0.90
2022-12-08T14:43:33.057Z,1.52
2022-12-08T14:46:20.608Z,0.80
2022-12-08T14:48:47.346Z,0.73
2022-12-08T14:51:22.898Z,0.50
2022-12-08T14:54:01.295Z,0.50
2022-12-08T14:56:34.147Z,0.60
2022-12-08T14:59:17.571Z,0.88
2022-12-08T15:01:45.764Z,0.73
2022-12-08T15:04:12.437Z,0.65
2022-12-08T15:07:12.108Z,0.55
2022-12-08T15:09:45.754Z,0.80
2022-12-08T15:12:12.352Z,0.77
2022-12-08T15:15:01.742Z,0.80
2022-12-08T15:17:35.410Z,0.63
2022-12-08T15:20:04.003Z,0.80
2022-12-08T15:22:31.509Z,0.90
2022-12-08T15:24:58.555Z,0.80
2022-12-08T15:27:26.123Z,0.70
2022-12-08T15:29:53.774Z,0.90
2022-12-08T15:32:22.833Z,0.95
2022-12-08T15:34:51.698Z,0.90
2022-12-08T15:37:22.762Z,0.77
2022-12-08T15:39:49.756Z,0.70
2022-12-08T15:42:16.758Z,0.90
2022-12-08T15:44:43.697Z,1.02
2022-12-08T15:47:19.058Z,0.95
2022-12-08T15:49:47.138Z,1.00
2022-12-08T15:52:18.558Z,0.80
2022-12-08T15:54:45.249Z,1.08
2022-12-08T16:00:50.678Z,2.70
2022-12-08T16:09:29.783Z,0.82
2022-12-08T16:12:15.150Z,0.82
2022-12-08T16:17:32.016Z,1.00
2022-12-08T16:19:59.495Z,0.70
2022-12-08T16:22:54.136Z,1.08
2022-12-08T16:25:19.228Z,0.70
2022-12-08T16:30:34.775Z,1.00
2022-12-08T16:33:01.738Z,1.05
2022-12-08T16:35:28.615Z,1.05
2022-12-08T16:37:55.306Z,0.95
2022-12-08T16:40:22.123Z,0.80
2022-12-08T16:42:50.041Z,0.80
2022-12-08T16:45:19.838Z,0.77
2022-12-08T16:47:50.706Z,0.80
2022-12-08T16:50:20.619Z,0.90
2022-12-08T16:52:48.752Z,1.15
2022-12-08T16:55:18.447Z,0.60
2022-12-08T16:57:47.212Z,1.05
2022-12-08T17:00:25.569Z,0.70
2022-12-08T17:02:52.728Z,0.90
2022-12-08T17:05:21.407Z,0.90
2022-12-08T17:07:50.356Z,0.82
2022-12-08T17:10:20.460Z,1.10
2022-12-08T17:12:47.358Z,1.10
2022-12-08T17:15:17.467Z,1.30
2022-12-08T17:17:44.568Z,1.73
2022-12-08T17:20:17.115Z,2.60
2022-12-08T17:22:44.684Z,2.20
2022-12-08T17:25:11.492Z,2.20
2022-12-08T17:27:38.371Z,1.98
2022-12-08T17:30:11.162Z,3.58
2022-12-08T17:32:38.454Z,2.92
2022-12-08T17:35:05.733Z,3.47
2022-12-08T17:37:32.666Z,4.38
2022-12-08T17:39:59.428Z,4.97
2022-12-08T17:42:27.194Z,5.68
2022-12-08T17:45:50.728Z,5.40
2022-12-08T17:48:17.418Z,5.25
2022-12-08T17:50:44.979Z,5.78
2022-12-08T17:53:12.002Z,5.57
2022-12-08T17:55:39.154Z,5.78
2022-12-08T17:58:06.800Z,7.18
2022-12-08T18:00:34.758Z,7.78
2022-12-08T18:03:02.139Z,7.10
2022-12-08T18:05:30.786Z,7.85
2022-12-08T18:07:58.392Z,6.25
2022-12-08T18:10:25.058Z,6.07
2022-12-08T18:12:51.782Z,7.35
2022-12-08T18:15:19.618Z,9.45
2022-12-08T18:17:46.746Z,9.98
2022-12-08T18:20:14.164Z,8.07
2022-12-08T18:22:41.120Z,10.52
2022-12-08T18:25:08.447Z,9.73
2022-12-08T18:27:41.460Z,10.50
2022-12-08T18:30:13.971Z,7.40
2022-12-08T18:32:40.714Z,7.03
2022-12-08T18:35:07.579Z,5.13
2022-12-08T18:37:34.976Z,6.47
2022-12-08T18:40:01.676Z,9.07
2022-12-08T18:42:28.468Z,8.55
2022-12-08T18:45:06.495Z,7.32
2022-12-08T18:47:38.972Z,5.32
2022-12-08T18:50:08.576Z,5.35
2022-12-08T18:52:35.368Z,5.57
2022-12-08T18:55:07.073Z,5.60
2022-12-08T18:57:34.675Z,4.88
2022-12-08T19:00:02.418Z,7.55
2022-12-08T19:02:29.430Z,5.25
2022-12-08T19:04:56.115Z,7.70
2022-12-08T19:07:22.843Z,6.10
2022-12-08T19:09:49.485Z,6.32
2022-12-08T19:12:16.414Z,5.43
2022-12-08T19:14:43.026Z,5.88
2022-12-08T19:17:09.720Z,4.30
2022-12-08T19:19:36.706Z,3.58
2022-12-08T19:22:03.769Z,3.72
2022-12-08T19:24:32.352Z,3.55
2022-12-08T19:26:59.020Z,3.15
2022-12-08T19:29:25.645Z,2.95
2022-12-08T19:31:52.743Z,2.40
2022-12-08T19:34:19.575Z,2.63
2022-12-08T19:36:46.471Z,2.58
2022-12-08T19:39:40.335Z,1.92
2022-12-08T19:42:34.386Z,2.80
2022-12-08T19:45:12.600Z,3.38
2022-12-08T19:47:40.334Z,2.35
2022-12-08T19:50:27.132Z,2.30
2022-12-08T19:52:54.131Z,2.47
2022-12-08T19:55:20.924Z,3.10
2022-12-08T19:57:47.608Z,2.95
2022-12-08T20:00:15.030Z,3.15
2022-12-08T20:02:42.028Z,2.70
2022-12-08T20:05:10.203Z,2.65
2022-12-08T20:07:36.905Z,2.70
2022-12-08T20:10:07.664Z,4.18
2022-12-08T20:12:34.496Z,5.65
2022-12-08T20:15:01.190Z,4.57
2022-12-08T20:17:27.901Z,5.20
2022-12-08T20:19:54.603Z,3.92
2022-12-08T20:22:21.250Z,3.33
2022-12-08T20:24:57.210Z,3.47
2022-12-08T20:27:26.315Z,3.90
2022-12-08T20:29:53.174Z,2.45
2022-12-08T20:32:19.897Z,2.15
2022-12-08T20:34:46.608Z,1.90
2022-12-08T20:37:13.812Z,1.95
2022-12-08T20:39:40.521Z,2.35
2022-12-08T20:42:07.239Z,2.47
2022-12-08T20:44:33.902Z,2.33
2022-12-08T20:47:00.685Z,2.30
2022-12-08T20:49:34.250Z,1.98
2022-12-08T20:52:01.388Z,2.83
2022-12-08T20:54:28.376Z,2.25
2022-12-08T20:56:55.276Z,2.40
2022-12-08T20:59:21.990Z,2.20
2022-12-08T21:01:48.969Z,2.75
2022-12-08T21:04:16.058Z,2.42
2022-12-08T21:06:43.083Z,2.20
2022-12-08T21:09:09.992Z,2.58
2022-12-08T21:11:36.878Z,2.63
2022-12-08T21:14:03.622Z,3.38
2022-12-08T21:16:30.667Z,2.67
2022-12-08T21:18:57.614Z,2.20
2022-12-08T21:21:24.542Z,2.97
2022-12-08T21:23:51.300Z,3.80
2022-12-08T21:26:21.099Z,4.25
2022-12-08T21:28:47.926Z,3.65
2022-12-08T21:31:17.668Z,5.20
2022-12-08T21:33:45.079Z,7.60
2022-12-08T21:36:14.416Z,6.13
2022-12-08T21:38:41.879Z,6.65
2022-12-08T21:41:11.313Z,10.32
2022-12-08T21:43:38.503Z,12.60
2022-12-08T21:46:05.648Z,11.23
2022-12-08T21:48:32.932Z,13.85
2022-12-08T21:51:08.973Z,14.57
2022-12-08T21:53:35.810Z,9.32
2022-12-08T21:56:02.624Z,16.02
2022-12-08T21:58:31.959Z,15.52
2022-12-08T22:01:05.626Z,6.63
2022-12-08T22:03:32.570Z,14.73
2022-12-08T22:06:05.195Z,14.05
2022-12-08T22:08:32.036Z,5.82
2022-12-08T22:10:58.895Z,10.15
2022-12-08T22:13:25.622Z,17.52
2022-12-08T22:16:00.156Z,7.90
2022-12-08T22:18:27.749Z,10.80
2022-12-08T22:20:55.049Z,10.45
2022-12-08T22:23:22.577Z,15.13
2022-12-08T22:26:00.066Z,21.13
2022-12-08T22:28:28.003Z,15.90
2022-12-08T22:30:55.549Z,7.28
2022-12-08T22:33:22.133Z,12.52
2022-12-08T22:36:16.093Z,23.25
2022-12-08T22:38:43.302Z,16.08
2022-12-08T22:41:10.549Z,17.67
2022-12-08T22:43:37.737Z,21.50
2022-12-08T22:46:14.417Z,20.33
2022-12-08T22:48:41.166Z,25.83
2022-12-08T22:51:08.692Z,21.63
2022-12-08T22:53:35.492Z,23.30
2022-12-08T22:56:06.901Z,14.88
2022-12-08T22:58:34.361Z,23.17
2022-12-08T23:01:01.278Z,19.60
2022-12-08T23:03:28.168Z,19.20
2022-12-08T23:05:55.010Z,22.48
2022-12-08T23:08:22.067Z,16.10
2022-12-08T23:10:51.846Z,21.52
2022-12-08T23:13:19.199Z,20.20
2022-12-08T23:15:45.802Z,19.73
2022-12-08T23:18:16.244Z,17.45
2022-12-08T23:20:42.918Z,22.73
2022-12-08T23:23:09.547Z,25.00
2022-12-08T23:25:41.009Z,27.05
2022-12-08T23:28:07.897Z,21.95
2022-12-08T23:30:34.650Z,22.08
2022-12-08T23:33:01.391Z,24.10
2022-12-08T23:35:28.083Z,26.02
2022-12-08T23:37:54.700Z,25.58
2022-12-08T23:40:21.487Z,25.05
2022-12-08T23:42:48.447Z,25.25
2022-12-08T23:45:15.391Z,25.85
2022-12-08T23:47:42.180Z,25.42
2022-12-08T23:50:09.788Z,24.48
2022-12-08T23:52:39.332Z,24.25
2022-12-08T23:55:07.398Z,22.27
2022-12-08T23:57:36.363Z,22.48
